createdAt,value
2023-05-22T00:01:56.606Z,8.30
2023-05-22T00:04:23.603Z,7.50
2023-05-22T00:06:50.271Z,7.50
2023-05-22T00:09:17.505Z,7.40
2023-05-22T00:11:44.317Z,7.00
2023-05-22T00:14:13.520Z,7.90
2023-05-22T00:16:41.240Z,7.50
2023-05-22T00:19:13.289Z,7.90
2023-05-22T00:21:40.382Z,9.00
2023-05-22T00:24:08.500Z,7.10
2023-05-22T00:26:35.250Z,6.30
2023-05-22T00:29:02.057Z,6.90
2023-05-22T00:31:28.764Z,6.70
2023-05-22T00:33:55.479Z,8.10
2023-05-22T00:36:22.287Z,7.90
2023-05-22T00:38:48.905Z,8.20
2023-05-22T00:41:15.782Z,8.10
2023-05-22T00:43:42.548Z,7.30
2023-05-22T00:46:09.926Z,7.90
2023-05-22T00:48:36.750Z,7.50
2023-05-22T00:51:04.860Z,6.70
2023-05-22T00:53:31.662Z,7.50
2023-05-22T00:56:00.002Z,8.00
2023-05-22T00:58:27.594Z,8.10
2023-05-22T01:00:56.089Z,8.70
2023-05-22T01:03:26.719Z,8.20
2023-05-22T01:05:55.767Z,7.60
2023-05-22T01:08:23.517Z,7.30
2023-05-22T01:11:04.348Z,7.30
2023-05-22T01:14:04.783Z,6.20
2023-05-22T01:16:46.808Z,7.10
2023-05-22T01:19:43.766Z,8.20
2023-05-22T01:22:22.422Z,9.00
2023-05-22T01:25:11.948Z,8.20
2023-05-22T01:28:02.514Z,7.10
2023-05-22T01:30:57.759Z,7.40
2023-05-22T01:33:26.134Z,6.60
2023-05-22T01:35:59.710Z,6.80
2023-05-22T01:38:28.894Z,7.60
2023-05-22T01:40:57.079Z,8.40
2023-05-22T01:43:23.832Z,7.80
2023-05-22T01:45:51.549Z,9.30
2023-05-22T01:48:18.323Z,7.70
2023-05-22T01:50:50.063Z,7.50
2023-05-22T01:53:20.078Z,6.90
2023-05-22T01:56:01.668Z,6.70
2023-05-22T01:58:49.752Z,7.10
2023-05-22T02:01:19.971Z,7.60
2023-05-22T02:03:56.248Z,8.30
2023-05-22T02:06:26.811Z,7.90
2023-05-22T02:08:55.562Z,7.70
2023-05-22T02:11:27.099Z,6.90
2023-05-22T02:13:54.296Z,6.90
2023-05-22T02:16:22.316Z,6.30
2023-05-22T02:18:49.199Z,6.40
2023-05-22T02:21:15.888Z,7.20
2023-05-22T02:23:42.750Z,7.90
2023-05-22T02:26:09.391Z,8.00
2023-05-22T02:28:36.230Z,8.90
2023-05-22T02:31:03.842Z,8.00
2023-05-22T02:33:30.948Z,6.80
2023-05-22T02:35:57.662Z,9.90
2023-05-22T02:38:24.376Z,41.90
2023-05-22T02:40:51.906Z,41.00
2023-05-22T02:43:18.567Z,28.30
2023-05-22T02:45:45.236Z,18.70
2023-05-22T02:48:13.267Z,11.60
2023-05-22T02:50:40.376Z,15.50
2023-05-22T02:53:07.854Z,11.80
2023-05-22T02:55:34.775Z,12.50
2023-05-22T02:58:03.483Z,12.20
2023-05-22T03:00:30.241Z,14.40
2023-05-22T03:02:57.047Z,14.20
2023-05-22T03:05:23.776Z,15.50
2023-05-22T03:07:52.922Z,16.50
2023-05-22T03:10:19.689Z,14.60
2023-05-22T03:12:46.299Z,16.40
2023-05-22T03:15:13.194Z,14.10
2023-05-22T03:17:40.480Z,12.50
2023-05-22T03:20:08.876Z,12.90
2023-05-22T03:22:36.096Z,11.30
2023-05-22T03:25:03.968Z,12.20
2023-05-22T03:27:30.660Z,11.70
2023-05-22T03:29:57.318Z,13.00
2023-05-22T03:32:24.272Z,10.30
2023-05-22T03:34:50.979Z,9.20
2023-05-22T03:37:17.658Z,9.60
2023-05-22T03:39:44.557Z,9.50
2023-05-22T03:42:24.529Z,9.70
2023-05-22T03:44:51.362Z,11.40
2023-05-22T03:47:18.247Z,11.10
2023-05-22T03:49:46.098Z,11.70
2023-05-22T03:52:12.847Z,11.20
2023-05-22T03:54:39.555Z,10.30
2023-05-22T03:57:06.944Z,9.40
2023-05-22T03:59:33.676Z,9.60
2023-05-22T04:02:01.330Z,7.90
2023-05-22T04:06:58.310Z,9.90
2023-05-22T04:09:32.222Z,9.20
2023-05-22T04:11:58.902Z,9.30
2023-05-22T04:14:26.257Z,8.50
2023-05-22T04:16:53.440Z,8.10
2023-05-22T04:19:20.716Z,8.20
2023-05-22T04:21:49.231Z,7.20
2023-05-22T04:24:18.248Z,6.70
2023-05-22T04:26:45.016Z,7.30
2023-05-22T04:29:14.709Z,8.00
2023-05-22T04:31:42.137Z,7.40
2023-05-22T04:34:14.783Z,7.80
2023-05-22T04:36:45.302Z,8.30
2023-05-22T04:39:14.015Z,8.00
2023-05-22T04:41:41.171Z,7.00
2023-05-22T04:44:08.305Z,7.70
2023-05-22T04:46:36.094Z,6.80
2023-05-22T04:49:06.287Z,6.00
2023-05-22T04:51:34.850Z,6.20
2023-05-22T04:54:01.571Z,6.70
2023-05-22T04:56:36.315Z,6.50
2023-05-22T04:59:05.461Z,7.00
2023-05-22T05:01:35.077Z,6.30
2023-05-22T05:04:03.838Z,7.00
2023-05-22T05:06:30.704Z,6.20
2023-05-22T05:08:58.107Z,6.70
2023-05-22T05:11:24.930Z,6.80
2023-05-22T05:13:51.807Z,6.40
2023-05-22T05:16:19.053Z,6.50
2023-05-22T05:18:46.121Z,6.40
2023-05-22T05:21:13.034Z,6.80
2023-05-22T05:23:39.808Z,7.10
2023-05-22T05:26:07.238Z,6.90
2023-05-22T05:28:34.052Z,7.10
2023-05-22T05:31:01.730Z,6.30
2023-05-22T05:33:52.436Z,6.20
2023-05-22T05:36:35.631Z,7.10
2023-05-22T05:39:02.456Z,7.20
2023-05-22T05:41:32.607Z,7.30
2023-05-22T05:44:05.812Z,6.70
2023-05-22T05:46:32.993Z,7.30
2023-05-22T05:48:59.808Z,7.70
2023-05-22T05:51:27.623Z,7.80
2023-05-22T05:53:54.361Z,7.30
2023-05-22T05:56:21.636Z,7.70
2023-05-22T05:58:48.517Z,7.50
2023-05-22T06:01:47.132Z,7.60
2023-05-22T06:04:19.041Z,7.10
2023-05-22T06:06:47.824Z,8.10
2023-05-22T06:09:15.007Z,8.30
2023-05-22T06:12:01.479Z,7.10
2023-05-22T06:14:28.627Z,8.00
2023-05-22T06:16:56.199Z,7.00
2023-05-22T06:19:23.067Z,8.10
2023-05-22T06:21:52.024Z,8.30
2023-05-22T06:24:20.192Z,8.10
2023-05-22T06:26:46.912Z,8.10
2023-05-22T06:29:14.759Z,7.90
2023-05-22T06:31:41.514Z,7.50
2023-05-22T06:34:08.612Z,8.10
2023-05-22T06:36:35.637Z,7.80
2023-05-22T06:39:03.500Z,8.30
2023-05-22T06:41:53.421Z,8.00
2023-05-22T06:44:20.451Z,8.50
2023-05-22T06:46:50.212Z,8.00
2023-05-22T06:49:21.026Z,8.30
2023-05-22T06:51:51.731Z,7.80
2023-05-22T06:54:19.693Z,8.50
2023-05-22T06:56:47.722Z,7.20
2023-05-22T06:59:16.453Z,8.50
2023-05-22T07:01:51.962Z,7.80
2023-05-22T07:04:25.132Z,7.40
2023-05-22T07:06:57.300Z,7.70
2023-05-22T07:09:24.163Z,8.50
2023-05-22T07:11:51.028Z,7.80
2023-05-22T07:14:18.189Z,8.30
2023-05-22T07:21:39.911Z,7.90
2023-05-22T07:24:09.543Z,7.60
2023-05-22T07:26:46.360Z,8.90
2023-05-22T07:29:14.144Z,8.20
2023-05-22T07:31:42.424Z,8.30
2023-05-22T07:34:10.656Z,8.40
2023-05-22T07:36:38.085Z,9.30
2023-05-22T07:41:35.893Z,8.90
2023-05-22T07:44:02.742Z,8.90
2023-05-22T07:46:32.512Z,8.20
2023-05-22T07:49:07.082Z,8.60
2023-05-22T07:51:34.903Z,8.00
2023-05-22T07:54:01.714Z,8.30
2023-05-22T07:56:28.620Z,8.20
2023-05-22T07:58:55.540Z,8.30
2023-05-22T08:01:23.523Z,8.50
2023-05-22T08:03:50.348Z,8.70
2023-05-22T08:06:17.948Z,7.90
2023-05-22T08:08:44.627Z,9.10
2023-05-22T08:11:11.492Z,9.00
2023-05-22T08:13:38.836Z,8.40
2023-05-22T08:16:06.815Z,8.30
2023-05-22T08:18:34.016Z,9.00
2023-05-22T08:21:01.305Z,8.00
2023-05-22T08:23:28.290Z,7.40
2023-05-22T08:25:54.967Z,7.90
2023-05-22T08:28:21.931Z,8.20
2023-05-22T08:30:48.595Z,8.10
2023-05-22T08:33:15.318Z,8.40
2023-05-22T08:35:42.135Z,7.70
2023-05-22T08:38:08.779Z,8.40
2023-05-22T08:40:38.746Z,8.40
2023-05-22T08:43:06.974Z,8.00
2023-05-22T08:45:34.622Z,8.10
2023-05-22T08:50:42.276Z,7.70
2023-05-22T08:53:15.745Z,7.60
2023-05-22T08:55:42.913Z,8.00
2023-05-22T08:58:11.503Z,7.70
2023-05-22T09:00:38.796Z,8.30
2023-05-22T09:05:34.193Z,7.10
2023-05-22T09:08:16.031Z,6.80
2023-05-22T09:10:46.495Z,6.80
2023-05-22T09:13:31.467Z,6.60
2023-05-22T09:16:00.901Z,7.80
2023-05-22T09:18:29.645Z,8.00
2023-05-22T09:21:00.630Z,6.90
2023-05-22T09:23:30.827Z,7.00
2023-05-22T09:26:00.133Z,6.90
2023-05-22T09:28:29.036Z,7.90
2023-05-22T09:30:56.256Z,7.70
2023-05-22T09:33:23.549Z,7.30
2023-05-22T09:35:54.713Z,7.00
2023-05-22T09:38:30.804Z,7.30
2023-05-22T09:40:57.813Z,7.20
2023-05-22T09:43:25.777Z,6.60
2023-05-22T09:46:02.358Z,7.20
2023-05-22T09:48:29.617Z,6.90
2023-05-22T09:51:00.213Z,6.90
2023-05-22T09:53:30.156Z,6.30
2023-05-22T09:56:00.224Z,6.50
2023-05-22T09:58:33.461Z,6.60
2023-05-22T10:01:01.698Z,6.80
2023-05-22T10:03:31.488Z,6.40
2023-05-22T10:06:00.698Z,6.80
2023-05-22T10:08:29.010Z,6.70
2023-05-22T10:10:57.864Z,6.40
2023-05-22T10:13:26.496Z,6.40
2023-05-22T10:15:54.812Z,6.60
2023-05-22T10:18:22.064Z,6.70
2023-05-22T10:20:50.166Z,6.00
2023-05-22T10:23:18.869Z,6.50
2023-05-22T10:25:46.191Z,6.40
2023-05-22T10:31:11.705Z,6.50
2023-05-22T10:34:11.243Z,6.20
2023-05-22T10:37:16.573Z,6.70
2023-05-22T10:40:02.142Z,6.30
2023-05-22T10:42:32.837Z,6.50
2023-05-22T10:45:06.762Z,6.60
2023-05-22T10:47:34.504Z,6.70
2023-05-22T10:50:12.002Z,6.60
2023-05-22T10:52:40.228Z,6.70
2023-05-22T10:55:11.273Z,6.70
2023-05-22T10:57:39.995Z,6.10
2023-05-22T11:00:13.168Z,6.10
2023-05-22T11:02:44.792Z,6.10
2023-05-22T11:05:18.384Z,6.60
2023-05-22T11:07:45.130Z,6.60
2023-05-22T11:10:11.900Z,6.20
2023-05-22T11:12:38.669Z,6.90
2023-05-22T11:15:08.566Z,5.60
2023-05-22T11:18:03.174Z,6.20
2023-05-22T11:20:31.118Z,5.90
2023-05-22T11:23:05.622Z,5.90
2023-05-22T11:25:35.039Z,5.30
2023-05-22T11:28:07.073Z,6.00
2023-05-22T11:30:34.794Z,6.00
2023-05-22T11:33:02.592Z,5.40
2023-05-22T11:35:29.898Z,5.70
2023-05-22T11:37:57.021Z,6.00
2023-05-22T11:40:27.208Z,6.20
2023-05-22T11:42:54.384Z,6.60
2023-05-22T11:45:21.853Z,6.50
2023-05-22T11:47:49.826Z,5.80
2023-05-22T11:50:29.247Z,5.90
2023-05-22T11:53:02.835Z,5.80
2023-05-22T11:55:29.597Z,5.80
2023-05-22T11:57:56.859Z,5.80
2023-05-22T12:00:23.729Z,5.00
2023-05-22T12:02:50.735Z,5.40
2023-05-22T12:05:21.659Z,5.40
2023-05-22T12:07:48.601Z,5.50
2023-05-22T12:10:15.714Z,5.40
2023-05-22T12:12:44.035Z,5.80
2023-05-22T12:15:11.381Z,6.00
2023-05-22T12:17:38.488Z,5.20
2023-05-22T12:22:33.973Z,5.20
2023-05-22T12:25:00.796Z,5.30
2023-05-22T12:27:33.205Z,6.00
2023-05-22T12:30:10.626Z,5.80
2023-05-22T12:32:37.337Z,6.00
2023-05-22T12:35:04.681Z,5.80
2023-05-22T12:40:04.365Z,5.90
2023-05-22T12:42:31.200Z,5.10
2023-05-22T12:45:01.209Z,5.10
2023-05-22T12:47:28.221Z,5.80
2023-05-22T12:49:55.027Z,6.40
2023-05-22T12:52:21.790Z,6.40
2023-05-22T12:54:50.226Z,5.20
2023-05-22T12:57:17.074Z,5.90
2023-05-22T12:59:44.001Z,5.80
2023-05-22T13:02:11.029Z,5.70
2023-05-22T13:04:37.777Z,5.30
2023-05-22T13:07:04.913Z,6.20
2023-05-22T13:09:31.709Z,5.90
2023-05-22T13:11:58.372Z,5.80
2023-05-22T13:14:25.389Z,6.40
2023-05-22T13:16:52.054Z,5.80
2023-05-22T13:19:18.802Z,6.50
2023-05-22T13:21:45.905Z,5.40
2023-05-22T13:24:12.588Z,5.70
2023-05-22T13:26:39.297Z,6.40
2023-05-22T13:29:06.648Z,6.30
2023-05-22T13:31:37.432Z,5.90
2023-05-22T13:34:05.433Z,5.80
2023-05-22T13:36:32.833Z,5.70
2023-05-22T13:38:59.629Z,5.90
2023-05-22T13:41:27.123Z,6.70
2023-05-22T13:43:54.701Z,6.80
2023-05-22T13:46:22.449Z,5.90
2023-05-22T13:48:49.430Z,6.00
2023-05-22T13:51:16.642Z,6.60
2023-05-22T13:53:43.349Z,6.50
2023-05-22T13:56:10.354Z,6.60
2023-05-22T13:58:37.089Z,6.20
2023-05-22T14:01:03.859Z,6.50
2023-05-22T14:03:30.631Z,6.10
2023-05-22T14:05:57.406Z,5.80
2023-05-22T14:08:24.967Z,5.90
2023-05-22T14:10:51.745Z,6.10
2023-05-22T14:13:18.795Z,6.10
2023-05-22T14:15:47.001Z,6.00
2023-05-22T14:18:16.264Z,5.10
2023-05-22T14:20:44.696Z,6.20
2023-05-22T14:23:13.252Z,5.70
2023-05-22T14:25:42.943Z,5.10
2023-05-22T14:28:11.562Z,5.00
2023-05-22T14:30:38.945Z,4.70
2023-05-22T14:35:34.063Z,4.40
2023-05-22T14:38:01.555Z,4.20
2023-05-22T14:40:28.420Z,4.00
2023-05-22T14:42:55.110Z,4.40
2023-05-22T14:45:21.986Z,4.30
2023-05-22T14:47:48.717Z,4.20
2023-05-22T14:50:19.808Z,4.30
2023-05-22T14:52:48.779Z,4.50
2023-05-22T14:55:16.870Z,4.40
2023-05-22T14:57:44.010Z,4.20
2023-05-22T15:00:12.592Z,4.20
2023-05-22T15:02:40.402Z,4.10
2023-05-22T15:05:08.142Z,4.80
2023-05-22T15:07:44.019Z,4.30
2023-05-22T15:10:12.891Z,4.10
2023-05-22T15:12:39.873Z,4.70
2023-05-22T15:15:07.460Z,4.00
2023-05-22T15:17:34.221Z,5.20
2023-05-22T15:20:01.030Z,4.50
2023-05-22T15:22:27.658Z,4.90
2023-05-22T15:25:23.877Z,4.30
2023-05-22T15:27:50.628Z,4.60
2023-05-22T15:30:19.110Z,4.10
2023-05-22T15:32:46.945Z,4.80
2023-05-22T15:35:14.109Z,4.60
2023-05-22T15:37:41.021Z,4.50
2023-05-22T15:40:11.221Z,4.50
2023-05-22T15:42:38.510Z,4.50
2023-05-22T15:45:06.124Z,4.90
2023-05-22T15:47:33.002Z,4.60
2023-05-22T15:50:00.207Z,4.60
2023-05-22T15:52:26.937Z,4.90
2023-05-22T15:54:54.938Z,4.70
2023-05-22T15:57:23.013Z,4.90
2023-05-22T15:59:50.914Z,4.70
2023-05-22T16:02:18.915Z,4.40
2023-05-22T16:04:45.879Z,4.50
2023-05-22T16:07:12.578Z,4.60
2023-05-22T16:09:39.269Z,4.60
2023-05-22T16:12:06.431Z,4.90
2023-05-22T16:14:33.086Z,4.90
2023-05-22T16:16:59.808Z,4.50
2023-05-22T16:19:28.653Z,4.10
2023-05-22T16:21:55.665Z,4.80
2023-05-22T16:24:22.298Z,5.50
2023-05-22T16:26:48.978Z,5.30
2023-05-22T16:29:20.578Z,5.20
2023-05-22T16:31:47.879Z,4.90
2023-05-22T16:34:15.080Z,5.00
2023-05-22T16:36:41.736Z,5.00
2023-05-22T16:39:08.407Z,4.70
2023-05-22T16:41:37.191Z,4.70
2023-05-22T16:44:03.992Z,4.70
2023-05-22T16:46:30.832Z,5.10
2023-05-22T16:48:57.460Z,5.10
2023-05-22T16:51:24.167Z,5.50
2023-05-22T16:53:51.121Z,4.90
2023-05-22T16:56:20.324Z,5.30
2023-05-22T16:58:47.712Z,5.00
2023-05-22T17:01:14.686Z,5.30
2023-05-22T17:03:41.576Z,4.90
2023-05-22T17:06:09.092Z,4.70
2023-05-22T17:08:35.969Z,5.10
2023-05-22T17:11:02.604Z,5.20
2023-05-22T17:13:29.258Z,5.80
2023-05-22T17:15:56.121Z,6.40
2023-05-22T17:18:22.885Z,5.40
2023-05-22T17:20:53.945Z,5.70
2023-05-22T17:23:20.900Z,5.60
2023-05-22T17:25:47.955Z,5.00
2023-05-22T17:28:15.120Z,4.50
2023-05-22T17:30:44.283Z,5.00
2023-05-22T17:33:12.367Z,4.70
2023-05-22T17:35:39.138Z,4.50
2023-05-22T17:38:08.421Z,4.60
2023-05-22T17:40:44.170Z,4.60
2023-05-22T17:43:11.879Z,4.40
2023-05-22T17:45:38.607Z,5.40
2023-05-22T17:48:07.457Z,5.40
2023-05-22T17:50:34.157Z,5.80
2023-05-22T17:53:00.964Z,5.00
2023-05-22T17:55:27.654Z,5.20
2023-05-22T17:57:54.615Z,5.20
2023-05-22T18:00:21.387Z,5.70
2023-05-22T18:02:48.072Z,5.50
2023-05-22T18:05:15.065Z,5.00
2023-05-22T18:07:41.826Z,5.20
2023-05-22T18:10:09.240Z,5.00
2023-05-22T18:12:38.210Z,5.10
2023-05-22T18:15:08.510Z,5.30
2023-05-22T18:17:35.472Z,4.80
2023-05-22T18:20:02.159Z,4.40
2023-05-22T18:22:28.845Z,5.00
2023-05-22T18:24:55.471Z,5.00
2023-05-22T18:27:22.074Z,4.60
2023-05-22T18:29:50.463Z,5.30
2023-05-22T18:32:17.447Z,5.40
2023-05-22T18:34:44.117Z,4.60
2023-05-22T18:37:10.990Z,5.00
2023-05-22T18:39:37.706Z,5.70
2023-05-22T18:42:05.149Z,6.20
2023-05-22T18:44:31.780Z,4.90
2023-05-22T18:46:58.418Z,5.10
2023-05-22T18:49:25.097Z,4.70
2023-05-22T18:51:51.788Z,4.60
2023-05-22T18:54:18.442Z,5.10
2023-05-22T18:56:45.081Z,5.30
2023-05-22T18:59:11.777Z,5.00
2023-05-22T19:01:38.638Z,5.40
2023-05-22T19:04:09.096Z,6.80
2023-05-22T19:06:36.317Z,10.90
2023-05-22T19:09:04.789Z,19.40
2023-05-22T19:11:31.535Z,31.40
2023-05-22T19:13:59.675Z,30.60
2023-05-22T19:16:26.405Z,18.50
2023-05-22T19:18:53.486Z,9.00
2023-05-22T19:21:20.576Z,12.10
2023-05-22T19:23:48.337Z,8.60
2023-05-22T19:26:15.070Z,7.20
2023-05-22T19:28:41.830Z,6.40
2023-05-22T19:31:08.523Z,6.30
2023-05-22T19:33:35.661Z,6.10
2023-05-22T19:36:02.554Z,6.40
2023-05-22T19:38:31.148Z,5.00
2023-05-22T19:40:57.951Z,4.40
2023-05-22T19:43:25.055Z,6.10
2023-05-22T19:45:51.864Z,6.70
2023-05-22T19:48:18.584Z,6.20
2023-05-22T19:50:45.414Z,6.20
2023-05-22T19:53:12.192Z,5.40
2023-05-22T19:55:38.912Z,5.50
2023-05-22T19:58:05.545Z,6.00
2023-05-22T20:00:33.460Z,5.60
2023-05-22T20:03:00.202Z,4.60
2023-05-22T20:05:27.336Z,5.10
2023-05-22T20:07:54.270Z,5.30
2023-05-22T20:10:20.958Z,5.60
2023-05-22T20:12:47.668Z,5.70
2023-05-22T20:15:15.437Z,5.20
2023-05-22T20:17:42.629Z,5.40
2023-05-22T20:20:10.439Z,5.30
2023-05-22T20:25:05.298Z,5.00
2023-05-22T20:27:32.165Z,5.30
2023-05-22T20:30:00.234Z,4.90
2023-05-22T20:32:27.383Z,6.00
2023-05-22T20:34:55.409Z,5.30
2023-05-22T20:37:23.051Z,5.70
2023-05-22T20:39:50.292Z,6.20
2023-05-22T20:42:17.931Z,5.80
2023-05-22T20:47:11.348Z,5.70
2023-05-22T20:49:38.944Z,5.50
2023-05-22T20:52:05.822Z,5.30
2023-05-22T20:54:34.621Z,5.60
2023-05-22T20:57:02.188Z,6.00
2023-05-22T20:59:29.148Z,5.70
2023-05-22T21:01:57.130Z,5.50
2023-05-22T21:04:24.372Z,4.90
2023-05-22T21:06:51.410Z,5.00
2023-05-22T21:09:18.184Z,5.60
2023-05-22T21:11:45.014Z,5.40
2023-05-22T21:14:11.768Z,5.00
2023-05-22T21:16:40.170Z,5.90
2023-05-22T21:19:07.443Z,6.40
2023-05-22T21:21:36.273Z,12.70
2023-05-22T21:24:03.397Z,12.00
2023-05-22T21:26:30.343Z,12.70
2023-05-22T21:28:57.209Z,10.00
2023-05-22T21:31:24.015Z,10.30
2023-05-22T21:33:50.782Z,8.00
2023-05-22T21:36:17.484Z,7.60
2023-05-22T21:38:44.937Z,7.50
2023-05-22T21:41:12.643Z,8.70
2023-05-22T21:43:39.552Z,9.50
2023-05-22T21:46:06.252Z,7.90
2023-05-22T21:48:33.049Z,6.40
2023-05-22T21:50:59.768Z,7.60
2023-05-22T21:53:26.432Z,7.90
2023-05-22T21:55:53.112Z,14.30
2023-05-22T21:58:19.762Z,15.00
2023-05-22T22:00:46.516Z,11.00
2023-05-22T22:03:13.446Z,10.20
2023-05-22T22:05:40.291Z,10.40
2023-05-22T22:08:06.969Z,9.00
2023-05-22T22:10:33.926Z,9.10
2023-05-22T22:13:01.654Z,8.50
2023-05-22T22:15:28.467Z,8.90
2023-05-22T22:17:59.618Z,7.80
2023-05-22T22:20:42.507Z,7.20
2023-05-22T22:23:10.756Z,6.40
2023-05-22T22:25:39.272Z,6.30
2023-05-22T22:28:07.400Z,5.90
2023-05-22T22:30:35.323Z,6.10
2023-05-22T22:33:02.387Z,5.70
2023-05-22T22:35:29.091Z,6.30
2023-05-22T22:37:55.772Z,5.50
2023-05-22T22:40:23.388Z,6.00
2023-05-22T22:42:51.732Z,5.70
2023-05-22T22:45:18.383Z,6.00
2023-05-22T22:47:45.997Z,5.40
2023-05-22T22:50:12.815Z,5.70
2023-05-22T22:52:45.634Z,5.00
2023-05-22T22:55:13.548Z,5.50
2023-05-22T23:00:13.346Z,5.10
2023-05-22T23:02:40.613Z,6.30
2023-05-22T23:05:08.606Z,5.20
2023-05-22T23:07:35.831Z,6.20
2023-05-22T23:10:02.951Z,7.20
2023-05-22T23:12:29.614Z,7.20
2023-05-22T23:14:56.522Z,6.40
2023-05-22T23:17:23.149Z,6.20
2023-05-22T23:19:49.750Z,5.20
2023-05-22T23:22:16.414Z,5.50
2023-05-22T23:24:43.030Z,5.30
2023-05-22T23:27:09.711Z,5.50
2023-05-22T23:29:36.455Z,5.70
2023-05-22T23:32:03.197Z,5.70
2023-05-22T23:34:29.967Z,6.20
2023-05-22T23:36:56.620Z,5.90
2023-05-22T23:39:23.254Z,5.40
2023-05-22T23:41:49.871Z,5.10
2023-05-22T23:44:16.556Z,5.40
2023-05-22T23:46:44.099Z,6.20
2023-05-22T23:49:10.909Z,6.00
2023-05-22T23:51:37.590Z,5.80
2023-05-22T23:54:04.445Z,7.70
2023-05-22T23:56:31.217Z,8.00
2023-05-22T23:58:57.828Z,6.10
